首页
METAR-TAF:

METAR-TAF

机场 :

Woodvale, 英格兰

纬度: 53-34-54N, 经度: 003-03-20W, 海拔: 11米

当前天气观测

该预报发布于20小时和0分钟前的14:20 UTC
风速12节,风向
温度 28°C
湿度 55%
气压 1014 hPa
能见度10公里或以上
1500米以下无云,无积雨云

METAR: EGOW 131420Z 09012KT CAVOK 28/18 Q1014 RMK BLU

时间: 11:20 (10:20 UTC)

预报

该预报发布于20小时和52分钟前的13:28 UTC
预报有效从13日的 15点(UTC)到 13日的 18点(UTC)
风速10节,风向
能见度10公里或以上
1500米以下无云,无积雨云

TAF: EGOW 131328Z 1315/1318 08010KT CAVOK

超过4000个机场的气象观测和天气预报(METAR&TAF报告)。

可查询的气象台以黄色和红色小点在地图上表示。

将鼠标移到小点上方,可查看气象台名称。

然后点击查看天气观测和预报。

如需切换地图:点击带黑十字的绿色按钮放大地图;点击带横线的绿色按钮缩小地图;或者点击绿色箭头查看邻近地区的地图。


METAR-TAF: